createdAt,value
2019-02-11T00:00:33.001Z,65.88
2019-02-11T00:04:03.233Z,65.93
2019-02-11T00:07:33.232Z,65.96
2019-02-11T00:11:03.482Z,66
2019-02-11T00:14:33.698Z,66.05
2019-02-11T00:18:03.847Z,66.07
2019-02-11T00:21:34.016Z,66.11
2019-02-11T00:25:04.295Z,66.12
2019-02-11T00:28:34.355Z,66.15
2019-02-11T00:32:04.469Z,66.17
2019-02-11T00:35:34.594Z,66.2
2019-02-11T00:39:05.673Z,66.22
2019-02-11T00:42:35.831Z,66.26
2019-02-11T00:46:06.190Z,66.28
2019-02-11T00:49:36.391Z,66.32
2019-02-11T00:53:06.598Z,66.35
2019-02-11T00:56:37.538Z,66.35
2019-02-11T01:00:09.658Z,66.37
2019-02-11T01:03:39.746Z,66.37
2019-02-11T01:07:10.025Z,66.4
2019-02-11T01:10:40.195Z,66.42
2019-02-11T01:14:10.324Z,66.43
2019-02-11T01:17:40.433Z,66.46
2019-02-11T01:21:10.454Z,66.48
2019-02-11T01:24:40.440Z,66.49
2019-02-11T01:28:10.590Z,66.52
2019-02-11T01:31:40.738Z,66.58
2019-02-11T01:35:10.879Z,66.6
2019-02-11T01:38:40.848Z,66.61
2019-02-11T01:42:11.007Z,66.66
2019-02-11T01:45:41.106Z,66.66
2019-02-11T01:49:11.285Z,66.69
2019-02-11T01:52:41.306Z,66.73
2019-02-11T01:56:11.562Z,66.77
2019-02-11T01:59:42.712Z,66.82
2019-02-11T02:00:15.713Z,66.82
2019-02-11T02:03:45.800Z,66.84
2019-02-11T02:07:15.819Z,66.87
2019-02-11T02:10:46.079Z,66.92
2019-02-11T02:14:16.098Z,66.95
2019-02-11T02:17:46.246Z,66.99
2019-02-11T02:21:16.405Z,67.03
2019-02-11T02:24:46.644Z,67.07
2019-02-11T02:28:16.715Z,67.1
2019-02-11T02:31:46.854Z,67.14
2019-02-11T02:35:16.898Z,67.18
2019-02-11T02:38:47.102Z,67.25
2019-02-11T02:42:17.152Z,67.3
2019-02-11T02:45:47.322Z,67.37
2019-02-11T02:49:17.406Z,67.41
2019-02-11T02:52:47.499Z,67.48
2019-02-11T02:56:17.646Z,67.54
2019-02-11T02:59:48.787Z,67.6
2019-02-11T03:03:18.856Z,67.66
2019-02-11T03:06:49.102Z,67.74
2019-02-11T03:10:19.216Z,67.8
2019-02-11T03:13:49.492Z,67.87
2019-02-11T03:17:19.674Z,67.93
2019-02-11T03:20:49.811Z,67.99
2019-02-11T03:24:19.852Z,68.07
2019-02-11T03:27:49.978Z,68.13
2019-02-11T03:31:19.999Z,68.19
2019-02-11T03:34:50.249Z,68.23
2019-02-11T03:38:20.407Z,68.29
2019-02-11T03:41:50.795Z,68.35
2019-02-11T03:45:21.015Z,68.43
2019-02-11T03:48:51.214Z,68.49
2019-02-11T03:52:21.293Z,68.52
2019-02-11T03:55:51.572Z,68.59
2019-02-11T03:59:21.592Z,68.63
2019-02-11T04:00:15.949Z,68.64
2019-02-11T04:03:46.100Z,68.73
2019-02-11T04:07:16.150Z,68.78
2019-02-11T04:10:46.349Z,68.83
2019-02-11T04:14:24.598Z,68.9
2019-02-11T04:17:55.285Z,68.97
2019-02-11T04:21:25.296Z,69.03
2019-02-11T04:24:55.336Z,69.09
2019-02-11T04:28:25.475Z,69.16
2019-02-11T04:31:55.754Z,69.23
2019-02-11T04:35:25.872Z,69.31
2019-02-11T04:38:56.031Z,69.35
2019-02-11T04:42:26.240Z,69.4
2019-02-11T04:45:56.380Z,69.43
2019-02-11T04:49:26.541Z,69.47
2019-02-11T04:52:56.610Z,69.53
2019-02-11T04:56:26.747Z,69.59
2019-02-11T04:59:56.936Z,69.67
2019-02-11T05:03:27.995Z,69.71
2019-02-11T05:06:58.146Z,69.77
2019-02-11T05:10:28.295Z,69.84
2019-02-11T05:13:58.383Z,69.89
2019-02-11T05:17:28.483Z,69.96
2019-02-11T05:20:58.563Z,70.03
2019-02-11T05:24:28.541Z,70.08
2019-02-11T05:27:58.702Z,70.15
2019-02-11T05:31:28.744Z,70.24
2019-02-11T05:34:58.889Z,70.29
2019-02-11T05:38:29.007Z,70.35
2019-02-11T05:41:59.090Z,70.42
2019-02-11T05:45:29.156Z,70.48
2019-02-11T05:48:59.350Z,70.52
2019-02-11T05:52:29.504Z,70.6
2019-02-11T05:55:59.726Z,70.65
2019-02-11T05:59:29.802Z,70.7
2019-02-11T06:00:17.823Z,70.73
2019-02-11T06:03:48.952Z,70.79
2019-02-11T06:07:19.005Z,70.85
2019-02-11T06:10:49.289Z,70.92
2019-02-11T06:14:19.428Z,70.97
2019-02-11T06:17:49.679Z,71
2019-02-11T06:21:19.709Z,71.05
2019-02-11T06:24:49.827Z,71.1
2019-02-11T06:28:19.895Z,71.15
2019-02-11T06:31:50.090Z,71.2
2019-02-11T06:35:20.237Z,71.26
2019-02-11T06:38:50.333Z,71.27
2019-02-11T06:42:20.502Z,71.33
2019-02-11T06:45:50.873Z,71.38
2019-02-11T06:49:21.052Z,71.43
2019-02-11T06:52:51.290Z,71.48
2019-02-11T06:56:21.419Z,71.57
2019-02-11T06:59:51.546Z,71.6
2019-02-11T07:03:21.677Z,71.63
2019-02-11T07:06:52.684Z,71.66
2019-02-11T07:10:22.798Z,71.67
2019-02-11T07:13:53.005Z,71.68
2019-02-11T07:17:23.198Z,71.71
2019-02-11T07:20:53.375Z,71.76
2019-02-11T07:24:23.414Z,71.79
2019-02-11T07:27:53.562Z,71.82
2019-02-11T07:31:23.613Z,71.84
2019-02-11T07:34:53.716Z,71.9
2019-02-11T07:38:23.921Z,71.93
2019-02-11T07:42:16.860Z,71.97
2019-02-11T07:46:06.904Z,71.98
2019-02-11T07:49:37.058Z,72
2019-02-11T07:53:07.109Z,72.02
2019-02-11T07:56:37.187Z,72.02
2019-02-11T08:00:13.335Z,72.04
2019-02-11T08:03:43.466Z,72.06
2019-02-11T08:07:14.505Z,72.09
2019-02-11T08:10:44.734Z,72.08
2019-02-11T08:14:14.874Z,72.09
2019-02-11T08:17:46.782Z,72.1
2019-02-11T08:21:17.003Z,72.09
2019-02-11T08:24:47.162Z,72.1
2019-02-11T08:28:19.615Z,72.15
2019-02-11T08:31:49.940Z,72.16
2019-02-11T08:35:20.018Z,72.19
2019-02-11T08:38:50.228Z,72.19
2019-02-11T08:42:20.271Z,72.19
2019-02-11T08:45:50.359Z,72.17
2019-02-11T08:49:20.497Z,72.17
2019-02-11T08:52:50.647Z,72.14
2019-02-11T08:56:20.806Z,72.13
2019-02-11T08:59:50.894Z,72.11
2019-02-11T09:03:20.921Z,72.1
2019-02-11T09:06:51.102Z,72.08
2019-02-11T09:10:22.202Z,72.07
2019-02-11T09:13:52.372Z,72.07
2019-02-11T09:17:22.422Z,72.07
2019-02-11T09:20:52.660Z,72.04
2019-02-11T09:24:22.759Z,72
2019-02-11T09:27:52.951Z,71.98
2019-02-11T09:31:23.089Z,71.99
2019-02-11T09:34:53.287Z,72
2019-02-11T09:38:23.426Z,71.95
2019-02-11T09:41:53.531Z,71.99
2019-02-11T09:45:24.296Z,71.95
2019-02-11T09:48:54.616Z,71.91
2019-02-11T09:52:24.696Z,71.88
2019-02-11T09:55:54.833Z,71.89
2019-02-11T09:59:24.925Z,71.9
2019-02-11T10:00:16.372Z,71.9
2019-02-11T10:03:46.512Z,71.9
2019-02-11T10:07:16.662Z,71.88
2019-02-11T10:10:47.831Z,71.8
2019-02-11T10:14:17.922Z,71.79
2019-02-11T10:17:48.100Z,71.78
2019-02-11T10:21:18.208Z,71.7
2019-02-11T10:24:48.309Z,71.63
2019-02-11T10:28:18.388Z,71.61
2019-02-11T10:31:48.478Z,71.54
2019-02-11T10:35:18.699Z,71.5
2019-02-11T10:38:48.757Z,71.44
2019-02-11T10:42:18.906Z,71.4
2019-02-11T10:45:49.036Z,71.35
2019-02-11T10:49:19.165Z,71.25
2019-02-11T10:52:49.324Z,71.17
2019-02-11T10:56:19.433Z,71.15
2019-02-11T10:59:49.553Z,71.1
2019-02-11T11:03:19.713Z,71.02
2019-02-11T11:06:49.863Z,70.99
2019-02-11T11:10:24.500Z,70.91
2019-02-11T11:13:55.873Z,70.82
2019-02-11T11:17:25.951Z,70.76
2019-02-11T11:20:56.063Z,70.67
2019-02-11T11:24:26.510Z,70.53
2019-02-11T11:27:56.830Z,70.36
2019-02-11T11:31:26.924Z,70.22
2019-02-11T11:34:57.019Z,70.05
2019-02-11T11:38:27.168Z,69.92
2019-02-11T11:41:57.377Z,69.79
2019-02-11T11:45:27.924Z,69.66
2019-02-11T11:48:58.196Z,69.52
2019-02-11T11:52:28.333Z,69.39
2019-02-11T11:56:02.127Z,69.18
2019-02-11T11:59:33.135Z,69.08
2019-02-11T12:00:20.797Z,69.02
2019-02-11T12:03:51.077Z,68.88
2019-02-11T12:07:21.269Z,68.67
2019-02-11T12:10:51.606Z,68.53
2019-02-11T12:14:22.667Z,68.38
2019-02-11T12:17:52.959Z,68.23
2019-02-11T12:21:23.015Z,68.09
2019-02-11T12:24:53.232Z,67.92
2019-02-11T12:28:23.440Z,67.72
2019-02-11T12:31:53.607Z,67.51
2019-02-11T12:35:23.766Z,67.25
2019-02-11T12:38:53.787Z,66.97
2019-02-11T12:42:23.868Z,66.73
2019-02-11T12:45:53.968Z,66.49
2019-02-11T12:49:24.183Z,66.28
2019-02-11T12:52:54.349Z,66.04
2019-02-11T12:56:24.367Z,65.82
2019-02-11T12:59:54.478Z,65.56
2019-02-11T13:03:24.599Z,65.33
2019-02-11T13:06:54.711Z,65.1
2019-02-11T13:10:25.271Z,64.87
2019-02-11T13:13:55.472Z,64.67
2019-02-11T13:17:33.733Z,64.46
2019-02-11T13:21:05.148Z,64.31
2019-02-11T13:24:35.180Z,64.11
2019-02-11T13:28:05.305Z,63.97
2019-02-11T13:31:35.489Z,63.81
2019-02-11T13:35:05.837Z,63.68
2019-02-11T13:38:35.939Z,63.52
2019-02-11T13:42:06.147Z,63.39
2019-02-11T13:45:36.276Z,63.28
2019-02-11T13:49:07.729Z,63.16
2019-02-11T13:52:37.742Z,63.05
2019-02-11T13:56:07.901Z,62.92
2019-02-11T13:59:38.177Z,62.81
2019-02-11T14:00:21.114Z,62.8
2019-02-11T14:03:51.323Z,62.69
2019-02-11T14:07:21.430Z,62.59
2019-02-11T14:10:51.698Z,62.48
2019-02-11T14:14:29.309Z,62.33
2019-02-11T14:18:13.382Z,62.19
2019-02-11T14:21:44.779Z,62.01
2019-02-11T14:25:14.979Z,61.87
2019-02-11T14:28:45.099Z,61.7
2019-02-11T14:32:15.263Z,61.57
2019-02-11T14:35:45.478Z,61.42
2019-02-11T14:39:15.607Z,61.28
2019-02-11T14:42:45.745Z,61.15
2019-02-11T14:46:15.757Z,60.99
2019-02-11T14:49:45.912Z,60.85
2019-02-11T14:53:15.986Z,60.71
2019-02-11T14:56:46.152Z,60.57
2019-02-11T15:00:18.307Z,60.46
2019-02-11T15:03:48.451Z,60.32
2019-02-11T15:07:18.629Z,60.2
2019-02-11T15:10:48.778Z,60.07
2019-02-11T15:14:18.947Z,59.94
2019-02-11T15:17:48.978Z,59.81
2019-02-11T15:21:20.056Z,59.71
2019-02-11T15:24:50.114Z,59.63
2019-02-11T15:28:20.263Z,59.57
2019-02-11T15:31:50.431Z,59.5
2019-02-11T15:35:20.542Z,59.46
2019-02-11T15:38:50.599Z,59.43
2019-02-11T15:42:20.728Z,59.4
2019-02-11T15:45:50.797Z,59.42
2019-02-11T15:49:20.946Z,59.41
2019-02-11T15:52:51.139Z,59.41
2019-02-11T15:56:21.220Z,59.41
2019-02-11T15:59:51.332Z,59.42
2019-02-11T16:00:18.152Z,59.42
2019-02-11T16:03:48.291Z,59.43
2019-02-11T16:07:18.376Z,59.44
2019-02-11T16:10:48.529Z,59.45
2019-02-11T16:14:18.538Z,59.47
2019-02-11T16:17:48.576Z,59.47
2019-02-11T16:21:18.765Z,59.52
2019-02-11T16:24:49.084Z,59.5
2019-02-11T16:28:19.313Z,59.55
2019-02-11T16:31:49.392Z,59.56
2019-02-11T16:35:19.561Z,59.62
2019-02-11T16:38:49.763Z,59.64
2019-02-11T16:42:19.900Z,59.67
2019-02-11T16:45:50.059Z,59.71
2019-02-11T16:49:20.146Z,59.73
2019-02-11T16:52:50.245Z,59.78
2019-02-11T16:56:20.314Z,59.79
2019-02-11T16:59:50.383Z,59.82
2019-02-11T17:03:20.472Z,59.85
2019-02-11T17:06:50.583Z,59.9
2019-02-11T17:10:20.660Z,59.96
2019-02-11T17:13:50.728Z,59.98
2019-02-11T17:17:20.907Z,60.02
2019-02-11T17:20:51.007Z,60.08
2019-02-11T17:24:21.096Z,60.17
2019-02-11T17:27:52.064Z,60.23
2019-02-11T17:31:22.193Z,60.3
2019-02-11T17:34:52.372Z,60.35
2019-02-11T17:38:22.450Z,60.42
2019-02-11T17:41:52.554Z,60.46
2019-02-11T17:45:23.399Z,60.52
2019-02-11T17:48:53.637Z,60.57
2019-02-11T17:52:23.826Z,60.63
2019-02-11T17:55:53.977Z,60.68
2019-02-11T17:59:24.038Z,60.73
2019-02-11T18:00:27.301Z,60.75
2019-02-11T18:03:57.375Z,60.82
2019-02-11T18:07:27.533Z,60.86
2019-02-11T18:10:57.672Z,60.92
2019-02-11T18:14:27.664Z,60.98
2019-02-11T18:17:57.788Z,61.03
2019-02-11T18:21:27.816Z,61.07
2019-02-11T18:24:57.925Z,61.14
2019-02-11T18:28:29.065Z,61.2
2019-02-11T18:31:59.194Z,61.23
2019-02-11T18:35:29.342Z,61.26
2019-02-11T18:38:59.441Z,61.3
2019-02-11T18:42:29.632Z,61.35
2019-02-11T18:45:59.859Z,61.36
2019-02-11T18:49:34.562Z,61.41
2019-02-11T18:53:05.039Z,61.46
2019-02-11T18:56:35.255Z,61.51
2019-02-11T19:00:05.904Z,61.55
2019-02-11T19:03:36.046Z,61.57
2019-02-11T19:07:06.231Z,61.63
2019-02-11T19:10:36.444Z,61.66
2019-02-11T19:14:06.569Z,61.69
2019-02-11T19:17:36.988Z,61.74
2019-02-11T19:21:07.067Z,61.79
2019-02-11T19:24:37.175Z,61.8
2019-02-11T19:28:07.374Z,61.85
2019-02-11T19:31:38.353Z,61.91
2019-02-11T19:35:08.502Z,61.97
2019-02-11T19:38:38.621Z,62.01
2019-02-11T19:42:08.840Z,62.08
2019-02-11T19:45:38.898Z,62.16
2019-02-11T19:49:08.997Z,62.23
2019-02-11T19:52:38.968Z,62.3
2019-02-11T19:56:09.185Z,62.37
2019-02-11T19:59:39.263Z,62.44
2019-02-11T20:00:17.903Z,62.47
2019-02-11T20:03:48.002Z,62.54
2019-02-11T20:07:18.051Z,62.65
2019-02-11T20:10:48.190Z,62.73
2019-02-11T20:14:18.189Z,62.82
2019-02-11T20:17:48.378Z,62.91
2019-02-11T20:21:18.506Z,63
2019-02-11T20:24:48.695Z,63.08
2019-02-11T20:28:18.737Z,63.15
2019-02-11T20:31:49.868Z,63.24
2019-02-11T20:35:20.012Z,63.33
2019-02-11T20:38:50.180Z,63.41
2019-02-11T20:42:20.319Z,63.5
2019-02-11T20:45:50.480Z,63.57
2019-02-11T20:49:20.586Z,63.65
2019-02-11T20:52:50.695Z,63.74
2019-02-11T20:56:20.884Z,63.8
2019-02-11T20:59:51.023Z,63.87
2019-02-11T21:03:21.094Z,63.96
2019-02-11T21:06:51.300Z,64.04
2019-02-11T21:10:21.484Z,64.14
2019-02-11T21:13:51.668Z,64.22
2019-02-11T21:17:21.791Z,64.28
2019-02-11T21:20:51.895Z,64.38
2019-02-11T21:24:22.015Z,64.43
2019-02-11T21:27:52.104Z,64.51
2019-02-11T21:31:22.202Z,64.61
2019-02-11T21:34:53.271Z,64.69
2019-02-11T21:38:23.400Z,64.75
2019-02-11T21:41:53.539Z,64.82
2019-02-11T21:45:23.622Z,64.88
2019-02-11T21:48:53.763Z,64.95
2019-02-11T21:52:24.011Z,65.02
2019-02-11T21:55:54.187Z,65.06
2019-02-11T21:59:24.203Z,65.12
2019-02-11T22:00:17.132Z,65.14
2019-02-11T22:03:47.231Z,65.24
2019-02-11T22:07:17.390Z,65.29
2019-02-11T22:10:47.490Z,65.33
2019-02-11T22:14:17.543Z,65.38
2019-02-11T22:17:47.549Z,65.44
2019-02-11T22:21:17.583Z,65.51
2019-02-11T22:24:47.877Z,65.57
2019-02-11T22:28:17.933Z,65.62
2019-02-11T22:31:48.052Z,65.68
2019-02-11T22:35:19.071Z,65.73
2019-02-11T22:38:49.169Z,65.8
2019-02-11T22:42:19.288Z,65.86
2019-02-11T22:45:49.467Z,65.92
2019-02-11T22:49:19.606Z,65.97
2019-02-11T22:52:49.711Z,66.01
2019-02-11T22:56:19.903Z,66.1
2019-02-11T22:59:50.127Z,66.17
2019-02-11T23:03:20.252Z,66.22
2019-02-11T23:06:50.489Z,66.29
2019-02-11T23:10:20.668Z,66.37
2019-02-11T23:13:50.763Z,66.45
2019-02-11T23:17:20.863Z,66.51
2019-02-11T23:20:52.301Z,66.59
2019-02-11T23:24:22.420Z,66.67
2019-02-11T23:27:52.633Z,66.73
2019-02-11T23:31:22.672Z,66.82
2019-02-11T23:34:52.776Z,66.88
2019-02-11T23:38:23.964Z,66.95
2019-02-11T23:41:54.138Z,67.03
2019-02-11T23:45:24.122Z,67.08
2019-02-11T23:48:54.326Z,67.18
2019-02-11T23:52:24.335Z,67.25
2019-02-11T23:55:54.424Z,67.3
2019-02-11T23:59:24.578Z,67.37
